Time;durP1;ratioP1;P1;durP2;ratioP2;P2;SDS_P1;SDS_P2;PMS_P1;PMS_P2;Temp;Humidity;BMP_temperature;BMP_pressure;BME280_temperature;BME280_humidity;BME280_pressure;Samples;Min_cycle;Max_cycle;Signal;HPM_P1;HPM_P2
2022/11/02 00:02:20;;;;;;;12.65;3.45;;;;;;;14.13;67.33;101260.00;5038455;28;20488;-68
2022/11/02 00:04:50;;;;;;;12.15;3.10;;;;;;;14.13;66.79;101268.03;5030858;28;20041;-68
2022/11/02 00:07:15;;;;;;;8.95;3.40;;;;;;;14.13;67.24;101253.81;5048070;28;20025;-68
2022/11/02 00:09:44;;;;;;;11.07;3.22;;;;;;;14.13;66.87;101278.72;5048473;28;20036;-68
2022/11/02 00:12:11;;;;;;;13.60;3.35;;;;;;;14.12;66.78;101269.00;5050779;28;20025;-68
2022/11/02 00:14:37;;;;;;;10.10;3.25;;;;;;;14.12;66.70;101265.44;5033374;28;20030;-68
2022/11/02 00:17:02;;;;;;;11.20;3.08;;;;;;;14.08;66.47;101252.28;5044287;28;20113;-68
2022/11/02 00:19:31;;;;;;;9.43;3.17;;;;;;;14.14;66.59;101271.56;5041933;28;20060;-68
2022/11/02 00:21:57;;;;;;;14.97;3.17;;;;;;;14.14;66.51;101271.56;5050928;28;20044;-68
2022/11/02 00:24:25;;;;;;;9.32;2.67;;;;;;;14.12;66.63;101271.69;5016553;28;20703;-68
2022/11/02 00:26:52;;;;;;;10.20;3.03;;;;;;;14.10;66.75;101268.25;5033890;28;20029;-68
2022/11/02 00:29:21;;;;;;;14.18;3.58;;;;;;;14.17;66.30;101274.00;5048307;28;20482;-68
2022/11/02 00:31:46;;;;;;;9.77;3.05;;;;;;;14.18;66.28;101262.38;5034816;28;20057;-68
2022/11/02 00:34:11;;;;;;;9.68;2.92;;;;;;;14.19;66.11;101277.44;5050541;28;20499;-68
2022/11/02 00:36:39;;;;;;;8.15;2.60;;;;;;;14.18;66.00;101276.59;5029985;28;20041;-67
2022/11/02 00:39:05;;;;;;;10.15;2.95;;;;;;;14.16;66.15;101272.31;5030012;28;20049;-68
2022/11/02 00:41:30;;;;;;;11.25;3.38;;;;;;;14.22;65.42;101272.72;5029129;28;20136;-68
2022/11/02 00:43:56;;;;;;;9.63;3.28;;;;;;;14.16;65.64;101264.28;5032016;28;20105;-69
2022/11/02 00:46:21;;;;;;;16.20;3.95;;;;;;;14.24;64.91;101283.34;5035026;28;20040;-68
2022/11/02 00:48:46;;;;;;;23.08;3.88;;;;;;;14.18;65.04;101292.66;5049407;28;20112;-68
2022/11/02 00:51:12;;;;;;;22.77;3.65;;;;;;;14.19;63.79;101275.63;5036644;28;20492;-68
2022/11/02 00:53:37;;;;;;;26.45;3.97;;;;;;;13.97;65.02;101272.75;5030433;28;20080;-68
2022/11/02 00:56:06;;;;;;;16.33;3.42;;;;;;;13.97;64.60;101275.41;5013972;28;20068;-69
2022/11/02 00:58:31;;;;;;;22.45;3.20;;;;;;;13.92;65.13;101293.63;5035513;28;20061;-68
2022/11/02 01:00:57;;;;;;;17.50;3.20;;;;;;;13.93;64.79;101288.16;5048864;28;20108;-68
2022/11/02 01:03:25;;;;;;;14.32;3.08;;;;;;;13.86;65.08;101285.06;5037740;28;20098;-68
2022/11/02 01:05:50;;;;;;;11.82;3.33;;;;;;;13.81;65.36;101289.03;5033708;28;20058;-69
2022/11/02 01:08:20;;;;;;;8.25;2.80;;;;;;;13.78;65.45;101294.59;5047239;28;20029;-69
2022/11/02 01:10:46;;;;;;;6.47;2.70;;;;;;;13.84;63.91;101286.97;5029242;28;20029;-68
2022/11/02 01:13:11;;;;;;;10.52;2.80;;;;;;;13.75;64.09;101301.00;5031090;28;20036;-69
2022/11/02 01:15:37;;;;;;;13.43;2.95;;;;;;;13.75;63.80;101303.66;5000495;28;20115;-68
2022/11/02 01:18:02;;;;;;;12.07;3.28;;;;;;;13.66;64.30;101320.34;5029949;28;20036;-69
2022/11/02 01:20:30;;;;;;;12.40;3.20;;;;;;;13.67;64.14;101311.34;5041549;28;20076;-68
2022/11/02 01:22:57;;;;;;;16.13;3.10;;;;;;;13.64;64.11;101312.41;5048348;28;20032;-68
2022/11/02 01:25:25;;;;;;;13.70;3.03;;;;;;;13.56;64.58;101314.78;5033436;28;20036;-68
2022/11/02 01:27:51;;;;;;;7.95;2.60;;;;;;;13.49;65.08;101328.66;5042864;28;20060;-69
2022/11/02 01:30:17;;;;;;;8.77;2.95;;;;;;;13.57;64.00;101321.81;5042142;28;20025;-68
2022/11/02 01:32:42;;;;;;;7.43;2.35;;;;;;;13.59;63.77;101321.75;5048300;28;20400;-68
2022/11/02 01:35:15;;;;;;;12.88;2.72;;;;;;;13.48;63.95;101306.41;5036674;28;20042;-69
2022/11/02 01:37:40;;;;;;;13.40;2.40;;;;;;;13.44;64.16;101317.41;5047620;28;20115;-67
2022/11/02 01:40:06;;;;;;;9.70;2.80;;;;;;;13.37;64.33;101317.81;5038921;28;20451;-68
2022/11/02 01:42:32;;;;;;;9.45;3.28;;;;;;;13.36;64.33;101325.97;5046827;28;20044;-69
2022/11/02 01:44:57;;;;;;;9.95;2.92;;;;;;;13.26;64.56;101324.84;5046589;28;20107;-68
2022/11/02 01:47:23;;;;;;;8.70;2.67;;;;;;;13.24;64.42;101318.75;5046235;28;20403;-68
2022/11/02 01:49:53;;;;;;;9.60;3.10;;;;;;;13.13;65.07;101333.66;5035419;28;20071;-68
2022/11/02 01:52:26;;;;;;;17.42;3.38;;;;;;;13.11;65.11;101337.38;5031992;28;20041;-68
2022/11/02 01:55:00;;;;;;;10.30;2.83;;;;;;;13.12;65.22;101342.63;5048917;28;20094;-69
2022/11/02 01:57:28;;;;;;;9.13;2.92;;;;;;;13.13;65.06;101344.31;5049634;28;20084;-69
2022/11/02 02:00:04;;;;;;;12.75;3.10;;;;;;;13.12;65.16;101333.75;5051162;28;20068;-68
2022/11/02 02:02:30;;;;;;;13.02;3.22;;;;;;;13.13;65.51;101340.81;5045342;28;20091;-68
2022/11/02 02:05:05;;;;;;;9.85;2.88;;;;;;;13.15;65.42;101336.22;5041108;28;20033;-68
2022/11/02 02:07:36;;;;;;;13.40;3.17;;;;;;;13.21;65.53;101342.94;5034592;28;20065;-68
2022/11/02 02:10:01;;;;;;;12.93;3.08;;;;;;;13.14;65.61;101335.34;5045842;28;20482;-69
2022/11/02 02:12:29;;;;;;;10.50;2.95;;;;;;;13.09;65.92;101342.84;5053087;28;20124;-68
2022/11/02 02:14:55;;;;;;;10.35;2.97;;;;;;;13.04;65.98;101333.41;5039257;28;20021;-68
2022/11/02 02:17:25;;;;;;;9.32;3.15;;;;;;;13.04;66.08;101330.72;5035251;28;20040;-68
2022/11/02 02:20:02;;;;;;;10.82;3.92;;;;;;;13.00;66.26;101347.91;5042219;28;20037;-68
2022/11/02 02:22:37;;;;;;;12.35;3.00;;;;;;;12.99;66.33;101335.50;5035788;28;20037;-68
2022/11/02 02:25:34;;;;;;;12.05;3.08;;;;;;;12.98;66.40;101341.81;5045456;28;20035;-68
2022/11/02 02:28:21;;;;;;;11.35;2.97;;;;;;;12.98;66.68;101345.34;5053859;28;20487;-68
2022/11/02 02:30:56;;;;;;;7.82;2.53;;;;;;;12.93;66.82;101339.44;5035677;28;20025;-68
2022/11/02 02:33:31;;;;;;;8.48;2.60;;;;;;;12.83;67.30;101338.34;5036266;28;20043;-68
2022/11/02 02:36:13;;;;;;;10.82;3.15;;;;;;;12.86;67.18;101340.81;5039823;28;20095;-68
2022/11/02 02:38:48;;;;;;;8.77;3.10;;;;;;;12.80;67.34;101342.06;5050781;28;20029;-68
2022/11/02 02:41:31;;;;;;;8.00;2.72;;;;;;;12.85;67.44;101347.06;5051921;28;20025;-68
2022/11/02 02:43:59;;;;;;;10.35;3.00;;;;;;;12.77;66.87;101347.59;5046347;28;20029;-69
2022/11/02 02:46:36;;;;;;;10.68;2.80;;;;;;;12.72;67.75;101339.88;5035126;28;20506;-68
2022/11/02 02:49:03;;;;;;;12.63;3.28;;;;;;;12.68;67.75;101343.69;5035033;28;20026;-68
2022/11/02 02:51:31;;;;;;;11.35;3.38;;;;;;;12.70;67.24;101343.59;5034581;28;20140;-68
2022/11/02 02:54:11;;;;;;;12.07;3.15;;;;;;;12.72;67.40;101357.69;5040040;28;20090;-68
2022/11/02 02:56:48;;;;;;;10.48;3.10;;;;;;;12.67;67.58;101351.78;5047595;28;20472;-68
2022/11/02 02:59:21;;;;;;;11.15;2.78;;;;;;;12.65;67.49;101349.22;5043980;28;20598;-68
2022/11/02 03:01:49;;;;;;;14.02;2.97;;;;;;;12.65;67.31;101354.56;5034247;28;20028;-68
2022/11/02 03:04:15;;;;;;;12.60;3.35;;;;;;;12.66;67.31;101360.75;5020899;28;20407;-68
2022/11/02 03:06:44;;;;;;;12.77;3.72;;;;;;;12.67;67.21;101368.66;5042767;28;20112;-68
2022/11/02 03:09:28;;;;;;;12.07;3.15;;;;;;;12.65;67.13;101351.91;5043651;28;20028;-68
2022/11/02 03:11:56;;;;;;;10.30;3.15;;;;;;;12.61;67.23;101355.69;5045752;28;20037;-68
2022/11/02 03:14:44;;;;;;;15.60;3.42;;;;;;;12.60;67.25;101364.66;5042388;28;20029;-68
2022/11/02 03:17:15;;;;;;;13.48;3.20;;;;;;;12.56;67.24;101363.16;5033853;28;20037;-68
2022/11/02 03:19:54;;;;;;;17.70;3.90;;;;;;;12.56;67.09;101368.50;5041098;28;20595;-68
2022/11/02 03:22:33;;;;;;;10.32;3.38;;;;;;;12.56;66.91;101362.28;5042610;28;20551;-68
2022/11/02 03:25:11;;;;;;;13.15;3.35;;;;;;;12.64;66.99;101381.34;5043109;28;20028;-68
2022/11/02 03:27:44;;;;;;;12.05;3.08;;;;;;;12.60;66.40;101369.16;5047091;28;20025;-68
2022/11/02 03:30:14;;;;;;;15.15;4.22;;;;;;;12.67;66.38;101383.81;5050740;28;20025;-68
2022/11/02 03:32:48;;;;;;;12.98;3.80;;;;;;;12.62;66.45;101391.28;5036074;28;20500;-68
2022/11/02 03:35:29;;;;;;;16.67;4.55;;;;;;;12.71;66.36;101378.19;5042564;28;20021;-69
2022/11/02 03:38:00;;;;;;;18.05;4.00;;;;;;;12.63;66.80;101382.31;5051879;28;20108;-68
2022/11/02 03:40:31;;;;;;;18.60;3.80;;;;;;;12.63;66.60;101385.81;5047587;28;20396;-68
2022/11/02 03:42:59;;;;;;;10.85;3.35;;;;;;;12.55;67.09;101385.44;5033457;28;20021;-68
2022/11/02 03:45:32;;;;;;;12.90;3.38;;;;;;;12.51;66.79;101386.59;5043535;28;20028;-68
2022/11/02 03:48:05;;;;;;;15.52;3.85;;;;;;;12.64;66.52;101400.03;5041419;28;20030;-68
2022/11/02 03:50:32;;;;;;;18.23;4.35;;;;;;;12.61;66.57;101400.22;5031953;28;20388;-68
2022/11/02 03:53:08;;;;;;;15.45;3.53;;;;;;;12.58;67.12;101387.06;5049179;28;20499;-68
2022/11/02 03:55:39;;;;;;;24.58;5.32;;;;;;;12.61;66.78;101401.06;5050723;28;20075;-68
2022/11/02 03:58:10;;;;;;;13.55;4.20;;;;;;;12.53;67.19;101400.72;5044460;28;20037;-68
2022/11/02 04:00:37;;;;;;;16.15;3.53;;;;;;;12.54;67.38;101409.56;5050114;28;20071;-68
2022/11/02 04:03:05;;;;;;;13.07;3.50;;;;;;;12.48;67.97;101416.16;5049315;28;20033;-68
2022/11/02 04:05:35;;;;;;;16.63;3.85;;;;;;;12.40;68.47;101407.75;5048978;28;20406;-68
2022/11/02 04:16:14;;;;;;;13.18;3.42;;;;;;;12.41;68.78;101429.00;5031023;28;20448;-68
2022/11/02 04:21:24;;;;;;;14.00;4.18;;;;;;;12.30;68.91;101444.81;5048347;28;20055;-69
2022/11/02 04:26:34;;;;;;;13.57;3.60;;;;;;;12.27;69.52;101440.50;5040009;28;20120;-68
2022/11/02 04:28:59;;;;;;;14.05;4.20;;;;;;;12.31;69.07;101441.19;5004823;28;20022;-68
2022/11/02 04:31:25;;;;;;;14.52;3.67;;;;;;;12.28;69.52;101450.22;5032535;28;20034;-68
2022/11/02 04:33:52;;;;;;;12.45;4.13;;;;;;;12.26;69.16;101468.16;5033610;28;20029;-69
2022/11/02 04:36:18;;;;;;;15.77;3.53;;;;;;;12.21;69.36;101448.88;5040714;28;20027;-68
2022/11/02 04:38:44;;;;;;;13.88;3.85;;;;;;;12.17;69.63;101466.00;5050206;28;20029;-68
2022/11/02 04:43:59;;;;;;;15.70;3.92;;;;;;;12.19;69.48;101485.44;5040600;28;20506;-68
2022/11/02 04:46:29;;;;;;;15.82;3.63;;;;;;;12.17;69.88;101491.81;5033536;28;20032;-68
2022/11/02 04:48:55;;;;;;;15.98;4.10;;;;;;;12.13;69.81;101495.63;5038840;28;20021;-68
2022/11/02 04:51:21;;;;;;;16.38;3.70;;;;;;;12.15;69.71;101497.25;5048759;28;20395;-68
2022/11/02 04:53:51;;;;;;;20.75;3.83;;;;;;;12.18;69.52;101504.22;5038808;28;20100;-68
2022/11/02 04:56:17;;;;;;;27.27;4.50;;;;;;;12.25;69.19;101497.56;5050141;28;20052;-68
2022/11/02 04:58:43;;;;;;;16.08;3.75;;;;;;;12.19;69.64;101496.13;5050367;28;20056;-68
2022/11/02 05:01:13;;;;;;;14.18;3.80;;;;;;;12.17;70.29;101506.00;5049528;28;20438;-68
2022/11/02 05:03:39;;;;;;;13.90;3.90;;;;;;;12.17;69.60;101503.34;5035996;28;20079;-68
2022/11/02 05:06:09;;;;;;;13.18;3.50;;;;;;;12.20;69.33;101519.16;5043243;28;20036;-68
2022/11/02 05:08:35;;;;;;;16.58;3.97;;;;;;;12.18;69.68;101522.88;5039241;28;20026;-68
2022/11/02 05:11:00;;;;;;;17.10;3.58;;;;;;;12.19;69.32;101519.25;5042082;28;20144;-69
2022/11/02 05:13:26;;;;;;;12.65;3.75;;;;;;;12.21;69.23;101518.22;5042428;28;20112;-68
2022/11/02 05:15:54;;;;;;;17.23;4.20;;;;;;;12.19;69.30;101525.44;5037445;28;20025;-68
2022/11/02 05:18:23;;;;;;;15.03;3.83;;;;;;;12.22;69.13;101535.94;5049305;28;20156;-69
2022/11/02 05:20:54;;;;;;;18.52;4.15;;;;;;;12.20;68.87;101539.63;5033099;28;20302;-68
2022/11/02 05:23:21;;;;;;;13.48;4.00;;;;;;;12.19;69.06;101551.25;5031339;28;20069;-69
2022/11/02 05:26:02;;;;;;;21.95;4.60;;;;;;;12.21;68.95;101546.72;5040563;28;20037;-68
2022/11/02 05:28:29;;;;;;;31.75;4.43;;;;;;;12.17;68.83;101555.81;5049419;28;20025;-68
2022/11/02 05:31:00;;;;;;;20.75;4.35;;;;;;;12.11;68.81;101556.19;5033508;28;20032;-69
2022/11/02 05:33:30;;;;;;;15.88;3.70;;;;;;;12.13;68.49;101563.16;5030569;28;20026;-69
2022/11/02 05:35:56;;;;;;;13.10;3.97;;;;;;;12.09;69.01;101560.72;5032507;28;20029;-69
2022/11/02 05:38:26;;;;;;;17.48;4.30;;;;;;;12.01;69.15;101570.03;5033183;28;20120;-69
2022/11/02 05:40:53;;;;;;;20.13;4.20;;;;;;;12.04;68.91;101569.03;5045911;28;20033;-69
2022/11/02 05:43:18;;;;;;;16.40;3.45;;;;;;;11.94;69.41;101576.69;5046337;28;20025;-69
2022/11/02 05:45:49;;;;;;;18.33;4.18;;;;;;;11.97;69.38;101594.28;5039523;28;20508;-68
2022/11/02 05:48:15;;;;;;;15.93;3.95;;;;;;;11.93;69.40;101590.09;5044673;28;20454;-68
2022/11/02 05:50:40;;;;;;;15.95;3.65;;;;;;;11.85;69.82;101587.84;5050776;28;20029;-68
2022/11/02 05:53:05;;;;;;;14.45;3.97;;;;;;;11.80;69.90;101592.56;5051602;28;20029;-68
2022/11/02 05:55:34;;;;;;;13.85;3.92;;;;;;;11.78;69.87;101592.63;5042359;28;20504;-69
2022/11/02 05:57:59;;;;;;;15.93;3.63;;;;;;;11.71;70.29;101590.44;5036715;28;20025;-68
2022/11/02 06:00:25;;;;;;;14.85;3.08;;;;;;;11.67;70.45;101595.03;5030146;28;20040;-68
2022/11/02 06:02:57;;;;;;;16.10;4.05;;;;;;;11.66;70.36;101613.78;5037584;28;20436;-68
2022/11/02 06:05:24;;;;;;;13.52;4.20;;;;;;;11.65;70.88;101612.06;5044592;28;20067;-69
2022/11/02 06:07:50;;;;;;;19.98;3.60;;;;;;;11.64;70.65;101607.69;5048023;28;20547;-68
2022/11/02 06:10:16;;;;;;;12.80;3.55;;;;;;;11.59;70.72;101610.63;5044741;28;20107;-68
2022/11/02 06:12:41;;;;;;;13.27;3.97;;;;;;;11.58;71.23;101625.72;5030719;28;20112;-68
2022/11/02 06:15:07;;;;;;;12.77;3.63;;;;;;;11.58;70.78;101623.06;5031385;28;20117;-68
2022/11/02 06:17:39;;;;;;;18.70;4.07;;;;;;;11.55;70.93;101625.03;5032149;28;20021;-68
2022/11/02 06:20:06;;;;;;;12.48;4.00;;;;;;;11.50;71.43;101632.41;5034334;28;20046;-68
2022/11/02 06:22:39;;;;;;;14.10;3.90;;;;;;;11.53;71.47;101630.47;5029912;28;20052;-68
2022/11/02 06:25:05;;;;;;;18.83;4.40;;;;;;;11.41;71.61;101644.41;5028769;28;20110;-68
2022/11/02 06:27:30;;;;;;;12.75;3.60;;;;;;;11.39;71.65;101642.81;5032962;28;20537;-69
2022/11/02 06:29:56;;;;;;;19.90;4.25;;;;;;;11.46;71.13;101649.50;5038294;28;20107;-68
2022/11/02 06:32:21;;;;;;;14.98;4.28;;;;;;;11.39;72.05;101658.78;5030261;28;20098;-68
2022/11/02 06:34:47;;;;;;;19.45;4.47;;;;;;;11.31;72.25;101665.38;5030006;28;20512;-69
2022/11/02 06:37:13;;;;;;;12.90;3.78;;;;;;;11.31;72.21;101673.34;5029803;28;20025;-68
2022/11/02 06:39:38;;;;;;;14.88;4.15;;;;;;;11.29;72.14;101682.38;5034421;28;20026;-68
2022/11/02 06:42:09;;;;;;;16.88;3.92;;;;;;;11.35;71.81;101680.25;5045963;28;20072;-68
2022/11/02 06:44:34;;;;;;;15.63;3.90;;;;;;;11.22;72.43;101684.50;5048776;28;20079;-69
2022/11/02 06:47:00;;;;;;;14.52;3.92;;;;;;;11.20;72.53;101705.00;5034067;28;20032;-68
2022/11/02 06:49:25;;;;;;;11.68;3.63;;;;;;;11.18;72.73;101714.91;5046719;28;20033;-68
2022/11/02 06:51:51;;;;;;;12.63;3.80;;;;;;;11.14;72.67;101711.50;5035589;28;20029;-68
2022/11/02 06:54:16;;;;;;;14.23;3.75;;;;;;;11.19;72.67;101723.75;5035340;28;20060;-69
2022/11/02 06:56:42;;;;;;;15.90;3.75;;;;;;;11.20;72.69;101731.63;5033121;28;20025;-68
2022/11/02 06:59:07;;;;;;;19.80;4.25;;;;;;;11.17;72.54;101738.94;5032241;28;20029;-68
2022/11/02 07:01:35;;;;;;;14.20;3.83;;;;;;;11.15;72.91;101747.00;5035334;28;20033;-68
2022/11/02 07:04:01;;;;;;;13.63;4.22;;;;;;;11.10;72.69;101754.34;5037960;28;20033;-68
2022/11/02 07:06:30;;;;;;;12.68;4.10;;;;;;;11.10;72.92;101749.03;5048232;28;20349;-68
2022/11/02 07:08:55;;;;;;;13.93;4.07;;;;;;;11.10;73.07;101759.69;5033896;28;20495;-68
2022/11/02 07:11:21;;;;;;;15.52;3.90;;;;;;;11.19;72.46;101763.69;5027565;28;20038;-68
2022/11/02 07:13:49;;;;;;;15.73;4.43;;;;;;;11.11;72.90;101764.06;5039864;28;20033;-68
2022/11/02 07:16:15;;;;;;;18.63;5.22;;;;;;;11.08;73.47;101777.53;5033527;28;20036;-68
2022/11/02 07:18:40;;;;;;;18.20;4.40;;;;;;;11.13;73.20;101775.50;5035860;28;20037;-68
2022/11/02 07:21:09;;;;;;;14.15;4.10;;;;;;;11.17;72.91;101792.19;5042978;28;20045;-68
2022/11/02 07:23:34;;;;;;;9.43;3.60;;;;;;;11.21;72.83;101799.09;5046952;28;20071;-68
2022/11/02 07:26:00;;;;;;;13.77;4.22;;;;;;;11.22;72.86;101803.47;5049877;28;20021;-68
2022/11/02 07:28:28;;;;;;;19.08;4.00;;;;;;;11.19;73.59;101808.94;5033788;28;20031;-68
2022/11/02 07:30:54;;;;;;;11.00;4.10;;;;;;;11.23;72.69;101813.16;5038940;28;20025;-68
2022/11/02 07:33:20;;;;;;;14.02;4.35;;;;;;;11.16;72.97;101804.63;5035751;28;20032;-68
2022/11/02 07:35:47;;;;;;;14.85;3.97;;;;;;;11.17;73.42;101817.00;5052099;28;20021;-68
2022/11/02 07:38:15;;;;;;;14.15;3.72;;;;;;;11.21;73.48;101805.28;5052031;28;20543;-68
2022/11/02 07:40:40;;;;;;;14.98;4.20;;;;;;;11.23;73.80;101822.00;5042200;28;20036;-68
2022/11/02 07:43:06;;;;;;;15.13;4.13;;;;;;;11.24;73.53;101806.94;5037860;28;20040;-68
2022/11/02 07:45:32;;;;;;;15.18;3.85;;;;;;;11.26;73.88;101826.31;5045313;28;20472;-68
2022/11/02 07:47:58;;;;;;;12.07;3.85;;;;;;;11.26;73.52;101827.19;5032220;28;20033;-68
2022/11/02 07:50:27;;;;;;;13.23;3.75;;;;;;;11.23;73.95;101824.69;5033032;28;20408;-69
2022/11/02 07:52:55;;;;;;;15.50;4.28;;;;;;;11.29;73.48;101835.00;5048513;28;20124;-68
2022/11/02 07:55:23;;;;;;;15.65;3.90;;;;;;;11.30;74.01;101834.09;5052655;28;20028;-68
2022/11/02 07:58:03;;;;;;;12.57;3.95;;;;;;;11.40;73.65;101844.28;5052429;28;20464;-68
2022/11/02 08:00:31;;;;;;;17.25;4.55;;;;;;;11.36;73.60;101844.44;5044008;28;20377;-68
2022/11/02 08:03:01;;;;;;;10.50;3.30;;;;;;;11.41;73.50;101832.69;5032590;28;20091;-69
2022/11/02 08:05:28;;;;;;;15.43;4.05;;;;;;;11.43;73.34;101841.47;5042424;28;20025;-69
2022/11/02 08:08:01;;;;;;;11.30;4.25;;;;;;;11.45;73.37;101847.59;5052381;28;20021;-68
2022/11/02 08:10:28;;;;;;;20.63;4.82;;;;;;;11.47;73.58;101846.56;5041679;28;20026;-69
2022/11/02 08:12:55;;;;;;;11.73;3.75;;;;;;;11.49;73.64;101857.13;5043354;28;20519;-69
2022/11/02 08:15:20;;;;;;;16.15;4.03;;;;;;;11.47;74.01;101832.38;5048742;28;20035;-68
2022/11/02 08:17:46;;;;;;;16.55;4.20;;;;;;;11.52;73.79;101852.50;5029347;28;20033;-68
2022/11/02 08:20:11;;;;;;;18.23;4.53;;;;;;;11.57;73.44;101852.28;5046949;28;20134;-68
2022/11/02 08:22:37;;;;;;;14.05;3.88;;;;;;;11.62;73.70;101854.69;5052327;28;20032;-68
2022/11/02 08:25:04;;;;;;;16.02;4.63;;;;;;;11.63;73.04;101851.97;5051654;28;20029;-69
2022/11/02 08:27:32;;;;;;;15.98;3.97;;;;;;;11.65;73.25;101852.75;5051853;28;20439;-68
2022/11/02 08:29:57;;;;;;;14.25;3.80;;;;;;;11.72;73.04;101861.28;5044152;28;20091;-68
2022/11/02 08:32:23;;;;;;;14.40;3.72;;;;;;;11.78;72.28;101860.97;5041363;28;20040;-68
2022/11/02 08:34:48;;;;;;;20.92;4.20;;;;;;;11.85;71.61;101865.06;5045908;28;20044;-68
2022/11/02 08:37:14;;;;;;;13.45;3.67;;;;;;;11.84;72.10;101860.66;5044489;28;20491;-69
2022/11/02 08:39:39;;;;;;;13.15;3.53;;;;;;;11.87;71.92;101871.19;5049600;28;20476;-68
2022/11/02 08:42:07;;;;;;;14.85;4.47;;;;;;;11.87;71.79;101878.34;5051603;28;20060;-69
2022/11/02 08:44:33;;;;;;;15.70;4.30;;;;;;;11.90;72.13;101875.50;5045505;28;20032;-68
2022/11/02 08:46:58;;;;;;;14.73;4.65;;;;;;;11.91;70.91;101875.44;5049388;28;20461;-68
2022/11/02 08:49:26;;;;;;;14.98;3.75;;;;;;;11.96;72.40;101883.19;5050619;28;20028;-68
2022/11/02 08:51:51;;;;;;;17.45;4.75;;;;;;;12.00;71.36;101877.63;5041282;28;20028;-68
2022/11/02 08:54:16;;;;;;;17.80;4.45;;;;;;;12.06;71.43;101879.09;5036306;28;20043;-68
2022/11/02 08:56:42;;;;;;;17.38;4.13;;;;;;;12.13;71.30;101890.31;5022607;28;20041;-68
2022/11/02 08:59:07;;;;;;;13.45;4.13;;;;;;;12.15;71.13;101886.59;5047677;28;20108;-68
2022/11/02 09:01:33;;;;;;;15.38;4.10;;;;;;;12.24;70.46;101891.44;5051051;28;20039;-68
2022/11/02 09:03:58;;;;;;;14.20;3.85;;;;;;;12.32;69.90;101891.03;5049733;28;20111;-68
2022/11/02 09:06:24;;;;;;;12.02;4.35;;;;;;;12.35;70.73;101903.34;5046423;28;20036;-68
2022/11/02 09:08:49;;;;;;;11.45;3.55;;;;;;;12.41;69.53;101895.00;5050356;28;20103;-68
2022/11/02 09:11:15;;;;;;;13.85;4.05;;;;;;;12.47;69.00;101881.31;5049026;28;20040;-68
2022/11/02 09:13:40;;;;;;;12.98;3.63;;;;;;;12.53;69.10;101889.03;5038616;28;20070;-68
2022/11/02 09:16:06;;;;;;;14.15;3.63;;;;;;;12.58;69.14;101886.94;5049574;28;20040;-68
2022/11/02 09:18:34;;;;;;;18.92;4.72;;;;;;;12.66;69.01;101907.88;5050809;28;20040;-68
2022/11/02 09:21:01;;;;;;;14.68;4.40;;;;;;;12.71;68.68;101889.81;5037028;28;20401;-68
2022/11/02 09:23:26;;;;;;;16.90;4.18;;;;;;;12.77;68.35;101897.50;5038076;28;20041;-68
2022/11/02 09:25:52;;;;;;;16.48;4.82;;;;;;;12.81;69.02;101904.38;5049382;28;20032;-68
2022/11/02 09:28:17;;;;;;;16.65;4.53;;;;;;;12.84;68.52;101901.53;5039150;28;20120;-69
2022/11/02 09:30:45;;;;;;;15.48;4.53;;;;;;;12.89;68.36;101909.28;5037060;28;20033;-68
2022/11/02 09:33:12;;;;;;;18.75;5.40;;;;;;;13.00;68.69;101911.34;5044428;28;20029;-68
2022/11/02 09:35:41;;;;;;;20.08;4.13;;;;;;;13.00;68.31;101909.56;5039822;28;20393;-69
2022/11/02 09:38:08;;;;;;;16.15;3.88;;;;;;;13.10;67.96;101917.91;5037170;28;20037;-69
2022/11/02 09:40:55;;;;;;;17.13;4.38;;;;;;;13.23;67.72;101910.03;5041926;28;20026;-68
2022/11/02 09:43:56;;;;;;;16.60;4.63;;;;;;;13.40;67.46;101920.66;5037402;28;20131;-68
2022/11/02 09:46:28;;;;;;;26.17;4.78;;;;;;;13.42;66.35;101920.59;5040151;28;20036;-68
2022/11/02 09:49:03;;;;;;;17.52;4.32;;;;;;;13.45;66.13;101918.59;5049213;28;20013;-68
2022/11/02 09:51:39;;;;;;;20.05;5.15;;;;;;;13.57;66.13;101919.69;5040688;28;20484;-68
2022/11/02 09:54:17;;;;;;;25.15;4.75;;;;;;;13.62;65.83;101923.81;5050709;28;20064;-68
2022/11/02 09:56:43;;;;;;;15.43;4.30;;;;;;;13.58;65.22;101924.94;5050514;28;20036;-68
2022/11/02 09:59:16;;;;;;;23.15;4.78;;;;;;;13.70;64.35;101919.81;5049109;28;20032;-68
2022/11/02 10:02:02;;;;;;;23.27;4.55;;;;;;;13.84;64.11;101923.41;5043538;28;20032;-68
2022/11/02 10:04:52;;;;;;;13.48;4.05;;;;;;;13.98;63.67;101919.91;5046590;28;20099;-68
2022/11/02 10:07:18;;;;;;;19.50;4.57;;;;;;;14.14;63.31;101935.88;5044446;28;20028;-68
2022/11/02 10:09:49;;;;;;;14.88;3.90;;;;;;;14.33;62.09;101927.59;5050058;28;20024;-68
2022/11/02 10:12:28;;;;;;;12.38;4.13;;;;;;;14.48;61.67;101936.50;5031484;28;20029;-69
2022/11/02 10:14:59;;;;;;;25.40;4.07;;;;;;;14.71;59.74;101940.47;5032571;28;20061;-69
2022/11/02 10:17:27;;;;;;;16.77;4.07;;;;;;;14.84;60.07;101943.22;5031649;28;20280;-68
2022/11/02 10:19:56;;;;;;;19.33;4.30;;;;;;;15.09;60.58;101943.38;5031357;28;20033;-69
2022/11/02 10:22:27;;;;;;;17.35;4.30;;;;;;;15.42;58.74;101955.53;5035576;28;20033;-68
2022/11/02 10:24:56;;;;;;;14.90;3.72;;;;;;;15.63;56.41;101945.19;5050342;28;20032;-69
2022/11/02 10:27:28;;;;;;;21.60;3.90;;;;;;;15.78;56.05;101959.44;5049948;28;20053;-69
2022/11/02 10:30:04;;;;;;;13.60;3.65;;;;;;;15.82;55.67;101959.09;5042736;28;20025;-69
2022/11/02 10:32:31;;;;;;;18.10;4.47;;;;;;;15.76;54.65;101956.00;5036636;28;20036;-69
2022/11/02 10:34:58;;;;;;;19.38;4.43;;;;;;;15.98;54.27;101947.38;5054243;28;20099;-69
2022/11/02 10:37:55;;;;;;;19.35;3.50;;;;;;;16.31;54.56;101957.59;5054787;28;20075;-69
2022/11/02 10:40:26;;;;;;;16.63;3.60;;;;;;;16.55;53.79;101955.84;5044740;28;20527;-69
2022/11/02 10:43:03;;;;;;;16.65;3.78;;;;;;;16.89;52.10;101956.19;5034610;28;20029;-69
2022/11/02 10:45:40;;;;;;;15.05;3.83;;;;;;;17.05;53.26;101955.06;5034114;28;20029;-69
2022/11/02 10:48:54;;;;;;;14.88;3.45;;;;;;;17.39;51.17;101970.44;5046887;28;20035;-69
2022/11/02 10:51:20;;;;;;;12.25;2.97;;;;;;;17.46;49.38;101957.41;5049260;28;20415;-69
2022/11/02 10:53:52;;;;;;;15.35;3.50;;;;;;;17.51;48.30;101960.63;5052557;28;20025;-69
2022/11/02 10:56:32;;;;;;;15.05;3.63;;;;;;;17.58;49.40;101971.78;5052230;28;20115;-69
2022/11/02 10:58:57;;;;;;;9.93;2.88;;;;;;;17.53;47.11;101980.19;5052416;28;20115;-69
2022/11/02 11:01:24;;;;;;;14.60;3.13;;;;;;;17.80;46.84;101963.84;5054070;28;20478;-69
2022/11/02 11:03:54;;;;;;;10.88;2.83;;;;;;;18.35;46.90;101975.75;5040510;28;20036;-69
2022/11/02 11:06:19;;;;;;;16.85;3.10;;;;;;;18.66;44.49;101976.03;5035104;28;20103;-69
2022/11/02 11:08:50;;;;;;;10.73;4.25;;;;;;;18.71;44.29;101963.06;5050733;28;20025;-70
2022/11/02 11:11:29;;;;;;;12.63;3.15;;;;;;;18.88;44.30;101966.25;5051966;28;20025;-69
2022/11/02 11:13:55;;;;;;;;;;;;;;;19.40;45.51;101967.41;5054234;28;20021;-69
2022/11/02 11:16:30;;;;;;;11.90;3.13;;;;;;;19.44;43.53;101985.03;5053616;28;20256;-69
2022/11/02 11:18:58;;;;;;;12.75;2.83;;;;;;;18.77;43.70;101970.69;5052005;28;20043;-69
2022/11/02 11:21:34;;;;;;;12.13;2.78;;;;;;;19.02;44.33;101987.56;5051160;28;20080;-70
2022/11/02 11:24:23;;;;;;;8.45;2.90;;;;;;;19.05;43.02;101990.00;5032235;28;20032;-69
2022/11/02 11:27:10;;;;;;;8.77;2.95;;;;;;;19.23;42.62;101974.16;5049612;28;20033;-69
2022/11/02 11:29:38;;;;;;;10.27;2.70;;;;;;;19.29;42.55;101974.56;5033654;28;20049;-70
2022/11/02 11:32:14;;;;;;;9.93;3.03;;;;;;;19.77;42.95;101981.44;5032785;28;20477;-69
2022/11/02 11:34:42;;;;;;;8.95;3.00;;;;;;;19.90;41.80;101968.59;5033245;28;20021;-70
2022/11/02 11:37:13;;;;;;;12.10;3.03;;;;;;;20.10;41.36;101964.19;5033412;28;20036;-70
2022/11/02 11:39:43;;;;;;;11.60;2.88;;;;;;;20.17;41.10;101954.56;5052499;28;20781;-70
2022/11/02 11:42:20;;;;;;;11.07;3.03;;;;;;;20.33;42.04;101946.00;5052010;28;20021;-70
2022/11/02 11:45:05;;;;;;;11.38;2.78;;;;;;;20.77;41.13;101953.94;5052957;28;20029;-70
2022/11/02 11:47:36;;;;;;;10.77;2.50;;;;;;;20.11;40.12;101947.00;5052745;28;20025;-70